Terminal Aerodrome Forecast
Issued by NWS

Current Version | Previous Version | Text Only | Print | Product List | Glossary On
Versions: 1 2 3 4 5 6 7 8 9 10 11 12 13
000
FTUS46 KHNX 011143
TAFBFL
TAF
KBFL 011143Z 0112/0212 09007KT P6SM SKC
     FM011800 29008KT P6SM BKN250
     FM020000 31010KT P6SM VCSH BKN060
     FM020500 VRB04KT P6SM FEW060=

USA.gov is the U.S. government's official web portal to all federal, state and local government web resources and services.